createdAt,value
2023-01-17T00:00:35.838Z,1.6
2023-01-17T00:02:41.118Z,1.5
2023-01-17T00:04:34.011Z,1.6
2023-01-17T00:06:32.724Z,1.4
2023-01-17T00:08:41.441Z,1.5
2023-01-17T00:10:32.737Z,1.7
2023-01-17T00:12:32.721Z,1.5
2023-01-17T00:14:40.045Z,1.3
2023-01-17T00:16:39.786Z,1.4
2023-01-17T00:18:32.714Z,1.4
2023-01-17T00:20:37.212Z,1.4
2023-01-17T00:22:33.559Z,1.2
2023-01-17T00:24:41.588Z,1.3
2023-01-17T00:26:32.739Z,1.4
2023-01-17T00:30:35.780Z,1.2
2023-01-17T00:32:34.076Z,1.3
2023-01-17T00:34:35.073Z,1.3
2023-01-17T00:36:36.891Z,1.3
2023-01-17T00:38:32.731Z,1.2
2023-01-17T00:40:42.774Z,1.2
2023-01-17T00:42:32.762Z,1.2
2023-01-17T00:44:32.717Z,1
2023-01-17T00:46:33.325Z,1
2023-01-17T00:48:32.771Z,1
2023-01-17T00:50:41.130Z,1
2023-01-17T00:52:37.044Z,1
2023-01-17T00:54:32.703Z,1.1
2023-01-17T00:56:35.996Z,1
2023-01-17T00:58:35.866Z,1
2023-01-17T01:00:32.786Z,1
2023-01-17T01:02:39.767Z,0.9
2023-01-17T01:04:33.984Z,0.9
2023-01-17T01:06:34.169Z,1
2023-01-17T01:08:40.500Z,0.9
2023-01-17T01:10:37.004Z,0.9
2023-01-17T01:12:32.705Z,1
2023-01-17T01:14:32.722Z,1.1
2023-01-17T01:16:40.372Z,0.9
2023-01-17T01:18:32.725Z,0.8
2023-01-17T01:20:34.977Z,0.8
2023-01-17T01:22:32.745Z,0.9
2023-01-17T01:24:33.689Z,0.8
2023-01-17T01:26:32.706Z,0.8
2023-01-17T01:28:39.741Z,0.9
2023-01-17T01:30:38.215Z,0.8
2023-01-17T01:32:32.713Z,0.8
2023-01-17T01:34:32.721Z,0.9
2023-01-17T01:36:43.290Z,0.8
2023-01-17T01:38:32.708Z,0.8
2023-01-17T01:40:34.163Z,1
2023-01-17T01:42:34.670Z,0.9
2023-01-17T01:44:35.595Z,0.9
2023-01-17T01:46:36.500Z,0.8
2023-01-17T01:48:33.726Z,0.8
2023-01-17T01:50:33.044Z,0.8
2023-01-17T01:52:32.717Z,0.8
2023-01-17T01:54:40.520Z,0.8
2023-01-17T01:56:34.626Z,0.7
2023-01-17T01:58:33.702Z,0.8
2023-01-17T02:00:37.478Z,0.8
2023-01-17T02:02:32.738Z,0.8
2023-01-17T02:04:33.557Z,0.8
2023-01-17T02:06:38.543Z,0.7
2023-01-17T02:08:32.741Z,0.6
2023-01-17T02:10:32.737Z,0.6
2023-01-17T02:12:41.506Z,0.6
2023-01-17T02:14:32.746Z,0.5
2023-01-17T02:16:36.086Z,0.7
2023-01-17T02:18:32.723Z,0.5
2023-01-17T02:20:37.968Z,0.7
2023-01-17T02:22:34.466Z,0.7
2023-01-17T02:24:35.234Z,0.5
2023-01-17T02:26:32.746Z,0.5
2023-01-17T02:28:35.031Z,0.6
2023-01-17T02:30:33.312Z,0.7
2023-01-17T02:32:36.205Z,0.6
2023-01-17T02:34:39.529Z,0.6
2023-01-17T02:36:34.570Z,0.5
2023-01-17T02:38:35.062Z,0.6
2023-01-17T02:40:33.270Z,0.6
2023-01-17T02:42:33.285Z,0.5
2023-01-17T02:44:33.291Z,0.4
2023-01-17T02:46:32.733Z,0.4
2023-01-17T02:48:42.018Z,0.5
2023-01-17T02:50:32.726Z,0.4
2023-01-17T02:52:41.881Z,0.4
2023-01-17T02:54:33.972Z,0.3
2023-01-17T02:56:42.789Z,0.3
2023-01-17T02:58:33.179Z,0.3
2023-01-17T03:00:34.662Z,0.4
2023-01-17T03:02:32.794Z,0.5
2023-01-17T03:04:32.750Z,0.4
2023-01-17T03:06:37.138Z,0.4
2023-01-17T03:08:35.258Z,0.4
2023-01-17T03:10:41.571Z,0.4
2023-01-17T03:12:34.661Z,0.4
2023-01-17T03:14:32.731Z,0.4
2023-01-17T03:16:39.272Z,0.4
2023-01-17T03:18:33.303Z,0.5
2023-01-17T03:20:32.842Z,0.5
2023-01-17T03:22:35.339Z,0.6
2023-01-17T03:24:35.077Z,0.7
2023-01-17T03:26:33.284Z,0.8
2023-01-17T03:28:33.266Z,0.7
2023-01-17T03:30:35.212Z,0.6
2023-01-17T03:32:32.719Z,0.5
2023-01-17T03:34:34.642Z,0.4
2023-01-17T03:36:32.764Z,0.4
2023-01-17T03:40:32.729Z,0.3
2023-01-17T03:42:32.736Z,0.3
2023-01-17T03:44:33.746Z,0.3
2023-01-17T03:46:33.943Z,0.3
2023-01-17T03:48:32.766Z,0.4
2023-01-17T03:50:32.735Z,0.3
2023-01-17T03:54:32.763Z,0.5
2023-01-17T03:56:32.725Z,0.4
2023-01-17T03:58:38.181Z,0.3
2023-01-17T04:00:36.574Z,0.3
2023-01-17T04:02:40.227Z,0.3
2023-01-17T04:04:41.077Z,0.3
2023-01-17T04:06:36.358Z,0.4
2023-01-17T04:08:36.508Z,0.4
2023-01-17T04:10:32.746Z,0.3
2023-01-17T04:12:32.740Z,0.2
2023-01-17T04:14:34.071Z,0.2
2023-01-17T04:16:32.758Z,0.1
2023-01-17T04:18:32.728Z,0.1
2023-01-17T04:20:33.661Z,0.1
2023-01-17T04:22:32.731Z,0
2023-01-17T04:24:33.276Z,-0.1
2023-01-17T04:26:38.810Z,0
2023-01-17T04:28:32.719Z,0
2023-01-17T04:30:36.149Z,-0.1
2023-01-17T04:32:33.324Z,-0.2
2023-01-17T04:34:33.283Z,-0.4
2023-01-17T04:36:33.291Z,-0.2
2023-01-17T04:38:35.528Z,-0.3
2023-01-17T04:40:35.030Z,-0.3
2023-01-17T04:42:33.530Z,-0.4
2023-01-17T04:44:35.377Z,-0.4
2023-01-17T04:46:33.638Z,-0.5
2023-01-17T04:48:32.724Z,-0.5
2023-01-17T04:50:36.287Z,-0.6
2023-01-17T04:52:32.734Z,-0.6
2023-01-17T04:54:34.034Z,-0.5
2023-01-17T04:56:36.387Z,-0.5
2023-01-17T04:58:32.762Z,-0.5
2023-01-17T05:00:32.728Z,-0.6
2023-01-17T05:02:33.334Z,-0.6
2023-01-17T05:04:36.803Z,-0.6
2023-01-17T05:06:33.565Z,-0.6
2023-01-17T05:08:35.690Z,-0.6
2023-01-17T05:10:34.070Z,-0.6
2023-01-17T05:12:32.787Z,-0.7
2023-01-17T05:14:33.699Z,-0.6
2023-01-17T05:16:33.688Z,-0.7
2023-01-17T05:18:32.872Z,-0.7
2023-01-17T05:20:41.108Z,-0.8
2023-01-17T05:22:32.736Z,-0.8
2023-01-17T05:24:32.775Z,-0.8
2023-01-17T05:26:32.784Z,-0.8
2023-01-17T05:28:32.849Z,-0.8
2023-01-17T05:30:33.327Z,-0.8
2023-01-17T05:32:32.775Z,-0.8
2023-01-17T05:34:39.877Z,-0.9
2023-01-17T05:36:32.773Z,-0.9
2023-01-17T05:38:35.713Z,-0.9
2023-01-17T05:40:34.216Z,-1.1
2023-01-17T05:42:35.851Z,-1.1
2023-01-17T05:44:37.272Z,-1
2023-01-17T05:46:32.747Z,-0.9
2023-01-17T05:48:34.549Z,-0.8
2023-01-17T05:50:32.758Z,-0.8
2023-01-17T05:52:32.759Z,-0.8
2023-01-17T05:54:32.753Z,-0.8
2023-01-17T05:56:32.735Z,-1
2023-01-17T06:00:35.821Z,-1.1
2023-01-17T06:02:32.764Z,-1.2
2023-01-17T06:04:33.818Z,-1.1
2023-01-17T06:06:32.757Z,-1.1
2023-01-17T06:08:32.770Z,-1.2
2023-01-17T06:10:33.290Z,-1.1
2023-01-17T06:12:32.896Z,-1.2
2023-01-17T06:14:34.652Z,-1
2023-01-17T06:16:34.032Z,-1.1
2023-01-17T06:18:35.763Z,-1.1
2023-01-17T06:20:32.744Z,-1
2023-01-17T06:24:32.753Z,-1.2
2023-01-17T06:26:35.622Z,-1.1
2023-01-17T06:30:34.512Z,-1
2023-01-17T06:32:36.059Z,-1.1
2023-01-17T06:34:32.778Z,-1.2
2023-01-17T06:36:33.337Z,-1.3
2023-01-17T06:38:32.848Z,-1.3
2023-01-17T06:40:32.764Z,-1.2
2023-01-17T06:42:33.695Z,-1.2
2023-01-17T06:44:32.735Z,-1
2023-01-17T06:46:32.806Z,-0.9
2023-01-17T06:48:33.300Z,-0.9
2023-01-17T06:50:33.569Z,-0.9
2023-01-17T06:52:32.760Z,-1
2023-01-17T06:54:33.679Z,-0.9
2023-01-17T06:56:32.750Z,-1
2023-01-17T06:58:32.774Z,-1
2023-01-17T07:00:32.916Z,-0.8
2023-01-17T07:02:33.301Z,-1
2023-01-17T07:04:36.520Z,-1.1
2023-01-17T07:06:35.007Z,-1.2
2023-01-17T07:08:43.169Z,-1.2
2023-01-17T07:10:34.531Z,-1.2
2023-01-17T07:12:32.861Z,-1.4
2023-01-17T07:14:32.759Z,-1.4
2023-01-17T07:16:32.780Z,-1.3
2023-01-17T07:18:39.259Z,-1.3
2023-01-17T07:20:32.736Z,-1.3
2023-01-17T07:22:34.040Z,-1.4
2023-01-17T07:24:32.789Z,-1.4
2023-01-17T07:26:32.747Z,-1.4
2023-01-17T07:28:33.281Z,-1.3
2023-01-17T07:30:32.760Z,-1.4
2023-01-17T07:32:33.506Z,-1.4
2023-01-17T07:34:32.762Z,-1.3
2023-01-17T07:36:33.432Z,-1.2
2023-01-17T07:38:34.611Z,-1.1
2023-01-17T07:40:38.687Z,-1.2
2023-01-17T07:42:33.597Z,-1.1
2023-01-17T07:44:32.749Z,-1.1
2023-01-17T07:46:32.825Z,-1
2023-01-17T07:48:32.742Z,-1
2023-01-17T07:50:34.031Z,-1
2023-01-17T07:52:34.479Z,-0.9
2023-01-17T07:54:32.749Z,-0.8
2023-01-17T07:56:32.857Z,-0.8
2023-01-17T07:58:32.870Z,-0.8
2023-01-17T08:00:32.774Z,-0.7
2023-01-17T08:02:33.344Z,-0.6
2023-01-17T08:04:34.021Z,-0.6
2023-01-17T08:06:32.772Z,-0.5
2023-01-17T08:08:37.895Z,-0.5
2023-01-17T08:10:32.769Z,-0.4
2023-01-17T08:12:32.791Z,-0.4
2023-01-17T08:14:32.774Z,-0.4
2023-01-17T08:16:32.928Z,-0.3
2023-01-17T08:18:32.762Z,-0.4
2023-01-17T08:20:34.071Z,-0.2
2023-01-17T08:22:36.324Z,0
2023-01-17T08:24:32.754Z,0
2023-01-17T08:26:32.864Z,0.4
2023-01-17T08:28:42.221Z,0.6
2023-01-17T08:30:32.757Z,0.8
2023-01-17T08:32:32.831Z,2.2
2023-01-17T08:34:36.863Z,3.2
2023-01-17T08:36:32.764Z,3.1
2023-01-17T08:38:34.471Z,3.3
2023-01-17T08:40:32.897Z,3.5
2023-01-17T08:42:37.767Z,2.8
2023-01-17T08:44:32.780Z,2.6
2023-01-17T08:46:36.494Z,2.3
2023-01-17T08:48:32.874Z,2.5
2023-01-17T08:50:32.764Z,3.5
2023-01-17T08:52:32.835Z,4.4
2023-01-17T08:54:32.811Z,2.8
2023-01-17T08:56:33.755Z,2
2023-01-17T09:00:32.784Z,2
2023-01-17T09:02:32.874Z,3.2
2023-01-17T09:04:32.839Z,3
2023-01-17T09:06:34.209Z,3.7
2023-01-17T09:08:32.793Z,4.1
2023-01-17T09:10:32.795Z,4.6
2023-01-17T09:12:33.644Z,4.4
2023-01-17T09:14:32.865Z,4.6
2023-01-17T09:16:35.983Z,4.4
2023-01-17T09:18:33.325Z,4.2
2023-01-17T09:20:34.110Z,4.7
2023-01-17T09:22:32.770Z,4.8
2023-01-17T09:24:32.898Z,4.8
2023-01-17T09:26:32.875Z,4.8
2023-01-17T09:28:32.867Z,4.8
2023-01-17T09:30:41.935Z,4.9
2023-01-17T09:32:33.080Z,4.9
2023-01-17T09:34:34.182Z,4.9
2023-01-17T09:36:32.810Z,4.9
2023-01-17T09:38:32.773Z,4.9
2023-01-17T09:40:32.920Z,4.9
2023-01-17T09:42:33.737Z,4.9
2023-01-17T09:44:32.888Z,5
2023-01-17T09:46:32.916Z,5
2023-01-17T09:48:34.641Z,5
2023-01-17T09:50:32.775Z,5
2023-01-17T09:52:33.439Z,5
2023-01-17T09:54:41.687Z,5.1
2023-01-17T09:56:32.807Z,5
2023-01-17T09:58:35.286Z,5
2023-01-17T10:02:32.908Z,5
2023-01-17T10:04:33.658Z,5.1
2023-01-17T10:06:34.050Z,5.1
2023-01-17T10:08:32.840Z,5.2
2023-01-17T10:10:32.807Z,5.2
2023-01-17T10:12:34.281Z,5.1
2023-01-17T10:14:32.846Z,5.1
2023-01-17T10:16:32.896Z,5.2
2023-01-17T10:18:32.788Z,5.2
2023-01-17T10:20:32.915Z,5.2
2023-01-17T10:22:32.895Z,5
2023-01-17T10:24:36.467Z,5
2023-01-17T10:26:32.803Z,5
2023-01-17T10:28:32.912Z,4.8
2023-01-17T10:30:32.925Z,4.8
2023-01-17T10:32:32.916Z,5
2023-01-17T10:36:32.774Z,5.2
2023-01-17T10:38:32.906Z,5.2
2023-01-17T10:40:35.410Z,5.3
2023-01-17T10:42:32.909Z,5.3
2023-01-17T10:44:32.897Z,5.3
2023-01-17T10:46:32.834Z,5.3
2023-01-17T10:48:32.923Z,5.3
2023-01-17T10:50:41.592Z,5.2
2023-01-17T10:52:34.540Z,5
2023-01-17T10:54:34.086Z,5.1
2023-01-17T10:56:34.583Z,5.2
2023-01-17T10:58:34.115Z,5.2
2023-01-17T11:02:32.896Z,5.2
2023-01-17T11:04:34.056Z,5.2
2023-01-17T11:06:32.810Z,5.1
2023-01-17T11:08:32.808Z,4.9
2023-01-17T11:10:37.380Z,4.5
2023-01-17T11:12:32.820Z,4.6
2023-01-17T11:14:36.013Z,4.6
2023-01-17T11:16:34.618Z,4.7
2023-01-17T11:18:35.818Z,4.9
2023-01-17T11:20:32.860Z,5.1
2023-01-17T11:22:32.894Z,5.1
2023-01-17T11:24:36.174Z,5.2
2023-01-17T11:26:32.905Z,5.2
2023-01-17T11:28:32.926Z,5.2
2023-01-17T11:30:34.917Z,5.2
2023-01-17T11:32:34.064Z,5
2023-01-17T11:34:34.490Z,4.6
2023-01-17T11:36:33.394Z,4.5
2023-01-17T11:38:33.612Z,4.3
2023-01-17T11:40:32.797Z,4.2
2023-01-17T11:42:32.865Z,4.1
2023-01-17T11:44:41.967Z,4.4
2023-01-17T11:46:32.817Z,4.3
2023-01-17T11:48:32.815Z,4.5
2023-01-17T11:50:32.897Z,4.6
2023-01-17T11:52:32.934Z,4.7
2023-01-17T11:54:36.610Z,4.6
2023-01-17T11:56:32.886Z,4.3
2023-01-17T11:58:33.727Z,4.5
2023-01-17T12:00:33.749Z,4.3
2023-01-17T12:02:35.064Z,4.4
2023-01-17T12:04:33.728Z,4.4
2023-01-17T12:06:44.849Z,4.3
2023-01-17T12:08:36.668Z,4.3
2023-01-17T12:10:33.736Z,4.5
2023-01-17T12:12:33.638Z,4.6
2023-01-17T12:14:32.810Z,4.6
2023-01-17T12:16:34.054Z,4
2023-01-17T12:18:34.187Z,4
2023-01-17T12:20:32.811Z,3.9
2023-01-17T12:22:32.816Z,3.9
2023-01-17T12:24:32.822Z,4.1
2023-01-17T12:26:34.573Z,4
2023-01-17T12:28:32.802Z,4.1
2023-01-17T12:30:32.843Z,4.4
2023-01-17T12:32:38.815Z,4.3
2023-01-17T12:34:36.705Z,4.6
2023-01-17T12:36:33.969Z,4.3
2023-01-17T12:38:36.635Z,4.7
2023-01-17T12:40:32.843Z,4.7
2023-01-17T12:42:32.934Z,4.7
2023-01-17T12:44:33.739Z,4.6
2023-01-17T12:46:32.859Z,4.7
2023-01-17T12:48:32.817Z,4.7
2023-01-17T12:50:34.694Z,4.7
2023-01-17T12:52:32.836Z,4.9
2023-01-17T12:54:36.548Z,4.4
2023-01-17T12:56:32.972Z,4.7
2023-01-17T12:58:34.583Z,4.9
2023-01-17T13:00:32.822Z,4.9
2023-01-17T13:02:32.982Z,5
2023-01-17T13:04:53.100Z,4.9
2023-01-17T13:06:32.796Z,4.9
2023-01-17T13:08:32.902Z,4.9
2023-01-17T13:10:32.929Z,4.9
2023-01-17T13:12:32.792Z,5
2023-01-17T13:14:33.744Z,5
2023-01-17T13:16:36.978Z,5
2023-01-17T13:18:32.796Z,4.9
2023-01-17T13:20:32.838Z,4.5
2023-01-17T13:22:32.869Z,4.3
2023-01-17T13:24:35.440Z,4.1
2023-01-17T13:26:33.815Z,4
2023-01-17T13:28:32.792Z,3.7
2023-01-17T13:30:36.097Z,3.4
2023-01-17T13:32:36.453Z,4
2023-01-17T13:34:32.853Z,4
2023-01-17T13:36:33.779Z,4.4
2023-01-17T13:38:34.009Z,4.4
2023-01-17T13:40:32.804Z,4.1
2023-01-17T13:42:32.930Z,4.9
2023-01-17T13:44:32.796Z,4.7
2023-01-17T13:46:32.879Z,4.8
2023-01-17T13:48:35.213Z,4.9
2023-01-17T13:50:32.797Z,4.9
2023-01-17T13:52:33.504Z,4.6
2023-01-17T13:54:32.835Z,4.7
2023-01-17T13:56:32.937Z,4.6
2023-01-17T13:58:41.206Z,4.8
2023-01-17T14:00:32.841Z,4.8
2023-01-17T14:02:33.638Z,4.3
2023-01-17T14:04:34.446Z,4.4
2023-01-17T14:06:32.820Z,4.3
2023-01-17T14:08:32.812Z,4
2023-01-17T14:10:44.171Z,3.7
2023-01-17T14:12:32.831Z,3.5
2023-01-17T14:14:33.648Z,3.3
2023-01-17T14:16:34.653Z,3
2023-01-17T14:18:32.944Z,2.9
2023-01-17T14:20:43.006Z,2.7
2023-01-17T14:22:32.810Z,2.7
2023-01-17T14:24:35.392Z,2.5
2023-01-17T14:26:42.959Z,2.4
2023-01-17T14:28:33.116Z,2.4
2023-01-17T14:30:32.984Z,2.3
2023-01-17T14:32:36.530Z,2.2
2023-01-17T14:34:37.653Z,2.2
2023-01-17T14:36:34.549Z,2
2023-01-17T14:38:32.970Z,1.9
2023-01-17T14:40:32.866Z,2.1
2023-01-17T14:42:32.931Z,2
2023-01-17T14:44:34.648Z,2
2023-01-17T14:46:32.809Z,2
2023-01-17T14:48:34.176Z,1.8
2023-01-17T14:50:32.822Z,1.8
2023-01-17T14:52:32.816Z,1.8
2023-01-17T14:54:34.856Z,1.9
2023-01-17T14:56:34.118Z,1.8
2023-01-17T14:58:32.817Z,1.7
2023-01-17T15:00:33.130Z,1.7
2023-01-17T15:02:33.000Z,1.6
2023-01-17T15:04:34.601Z,1.5
2023-01-17T15:06:34.634Z,1.7
2023-01-17T15:08:35.154Z,1.6
2023-01-17T15:10:35.974Z,1.5
2023-01-17T15:12:34.381Z,1.4
2023-01-17T15:14:38.101Z,1.4
2023-01-17T15:16:37.876Z,1.5
2023-01-17T15:18:32.906Z,1.5
2023-01-17T15:20:34.575Z,1.6
2023-01-17T15:22:33.659Z,1.4
2023-01-17T15:24:40.029Z,1.5
2023-01-17T15:26:36.540Z,1.4
2023-01-17T15:28:34.184Z,1.4
2023-01-17T15:30:32.864Z,1.5
2023-01-17T15:34:34.380Z,1.4
2023-01-17T15:36:32.990Z,1.4
2023-01-17T15:38:39.135Z,1.4
2023-01-17T15:40:32.841Z,1.4
2023-01-17T15:42:32.841Z,1.4
2023-01-17T15:44:46.628Z,1.4
2023-01-17T15:46:32.855Z,1.4
2023-01-17T15:48:32.842Z,1.4
2023-01-17T15:50:32.860Z,1.4
2023-01-17T15:52:34.587Z,1.3
2023-01-17T15:54:32.853Z,1.4
2023-01-17T15:58:37.726Z,1.3
2023-01-17T16:00:34.094Z,1.3
2023-01-17T16:02:32.918Z,1.3
2023-01-17T16:04:32.825Z,1.2
2023-01-17T16:06:32.947Z,1.3
2023-01-17T16:08:32.964Z,1.3
2023-01-17T16:10:41.652Z,1.2
2023-01-17T16:12:33.702Z,1.2
2023-01-17T16:14:49.720Z,1.2
2023-01-17T16:16:32.845Z,1.2
2023-01-17T16:18:34.611Z,1.2
2023-01-17T16:20:32.838Z,1.1
2023-01-17T16:22:34.763Z,1.1
2023-01-17T16:24:36.460Z,1
2023-01-17T16:26:33.605Z,1
2023-01-17T16:28:36.136Z,1
2023-01-17T16:30:36.647Z,1
2023-01-17T16:32:32.843Z,1
2023-01-17T16:34:35.980Z,1
2023-01-17T16:36:32.840Z,1.1
2023-01-17T16:38:39.461Z,1.1
2023-01-17T16:40:35.435Z,1.1
2023-01-17T16:42:34.140Z,1.1
2023-01-17T16:44:32.823Z,1.2
2023-01-17T16:46:36.562Z,1.1
2023-01-17T16:48:33.970Z,1
2023-01-17T16:50:34.431Z,1
2023-01-17T16:52:32.835Z,1
2023-01-17T16:54:32.841Z,1
2023-01-17T17:00:34.172Z,1
2023-01-17T17:02:32.889Z,0.9
2023-01-17T17:04:32.824Z,0.9
2023-01-17T17:06:34.529Z,0.9
2023-01-17T17:08:38.068Z,0.9
2023-01-17T17:10:32.826Z,0.9
2023-01-17T17:12:32.844Z,0.9
2023-01-17T17:14:33.849Z,0.8
2023-01-17T17:16:32.903Z,0.8
2023-01-17T17:18:32.837Z,0.8
2023-01-17T17:20:36.150Z,0.9
2023-01-17T17:22:34.147Z,0.8
2023-01-17T17:24:35.481Z,0.8
2023-01-17T17:26:34.661Z,0.9
2023-01-17T17:28:35.407Z,0.8
2023-01-17T17:30:32.855Z,0.8
2023-01-17T17:32:32.878Z,0.8
2023-01-17T17:34:32.861Z,0.8
2023-01-17T17:36:34.549Z,0.8
2023-01-17T17:38:34.287Z,0.8
2023-01-17T17:40:32.826Z,0.8
2023-01-17T17:42:32.856Z,0.9
2023-01-17T17:44:32.969Z,0.9
2023-01-17T17:48:39.249Z,0.8
2023-01-17T17:50:33.202Z,0.8
2023-01-17T17:52:33.843Z,0.8
2023-01-17T17:54:35.442Z,0.9
2023-01-17T17:56:32.860Z,0.9
2023-01-17T17:58:33.000Z,0.9
2023-01-17T18:00:32.980Z,0.9
2023-01-17T18:02:32.950Z,0.9
2023-01-17T18:04:36.152Z,0.9
2023-01-17T18:06:36.591Z,0.9
2023-01-17T18:08:32.829Z,0.9
2023-01-17T18:10:36.165Z,0.9
2023-01-17T18:12:32.859Z,1
2023-01-17T18:14:32.851Z,0.9
2023-01-17T18:16:32.851Z,1
2023-01-17T18:18:33.719Z,1
2023-01-17T18:20:32.849Z,0.9
2023-01-17T18:22:32.836Z,0.9
2023-01-17T18:24:32.886Z,1
2023-01-17T18:26:32.866Z,0.9
2023-01-17T18:28:32.836Z,1
2023-01-17T18:30:33.009Z,1
2023-01-17T18:32:35.298Z,1
2023-01-17T18:34:32.843Z,1
2023-01-17T18:36:32.852Z,1
2023-01-17T18:38:32.837Z,1.1
2023-01-17T18:40:32.865Z,0.9
2023-01-17T18:42:32.841Z,1
2023-01-17T18:44:32.953Z,1
2023-01-17T18:46:35.014Z,1
2023-01-17T18:48:32.848Z,1
2023-01-17T18:50:33.151Z,1
2023-01-17T18:52:32.845Z,1
2023-01-17T18:54:32.843Z,1
2023-01-17T18:56:33.309Z,1
2023-01-17T18:58:32.841Z,1
2023-01-17T19:00:32.933Z,1
2023-01-17T19:02:32.853Z,1.1
2023-01-17T19:04:32.872Z,1.1
2023-01-17T19:06:32.916Z,1
2023-01-17T19:08:33.693Z,1
2023-01-17T19:10:32.842Z,1.1
2023-01-17T19:12:32.852Z,1
2023-01-17T19:14:35.670Z,0.9
2023-01-17T19:16:32.989Z,0.9
2023-01-17T19:18:33.235Z,0.8
2023-01-17T19:20:32.851Z,0.7
2023-01-17T19:22:32.843Z,0.9
2023-01-17T19:24:33.703Z,0.8
2023-01-17T19:26:35.996Z,0.7
2023-01-17T19:28:35.355Z,0.7
2023-01-17T19:30:32.858Z,0.7
2023-01-17T19:32:34.613Z,0.6
2023-01-17T19:34:33.217Z,0.4
2023-01-17T19:36:32.863Z,0.4
2023-01-17T19:40:34.165Z,0.3
2023-01-17T19:42:36.690Z,0.5
2023-01-17T19:46:32.914Z,0.3
2023-01-17T19:48:32.844Z,0.2
2023-01-17T19:50:32.875Z,0.2
2023-01-17T19:52:35.472Z,0.1
2023-01-17T19:54:32.853Z,0.2
2023-01-17T19:56:32.843Z,0.1
2023-01-17T19:58:32.950Z,0.1
2023-01-17T20:00:46.111Z,0.1
2023-01-17T20:02:32.927Z,0
2023-01-17T20:04:32.874Z,0.1
2023-01-17T20:06:33.659Z,-0.1
2023-01-17T20:08:32.925Z,-0.1
2023-01-17T20:10:33.049Z,0
2023-01-17T20:12:34.295Z,0
2023-01-17T20:14:32.871Z,0.1
2023-01-17T20:16:32.911Z,0.1
2023-01-17T20:18:32.883Z,0.1
2023-01-17T20:22:32.905Z,0.2
2023-01-17T20:24:32.857Z,0.1
2023-01-17T20:26:32.852Z,0.1
2023-01-17T20:28:33.358Z,0.1
2023-01-17T20:30:34.169Z,0
2023-01-17T20:32:34.177Z,0
2023-01-17T20:34:33.315Z,0
2023-01-17T20:36:39.581Z,-0.1
2023-01-17T20:38:34.270Z,-0.1
2023-01-17T20:40:39.634Z,-0.2
2023-01-17T20:42:32.883Z,-0.2
2023-01-17T20:44:32.860Z,-0.3
2023-01-17T20:46:32.964Z,-0.3
2023-01-17T20:48:36.608Z,-0.3
2023-01-17T20:50:32.909Z,-0.3
2023-01-17T20:52:36.526Z,-0.3
2023-01-17T20:54:36.615Z,-0.3
2023-01-17T20:56:32.895Z,-0.3
2023-01-17T21:00:34.605Z,-0.4
2023-01-17T21:02:32.905Z,-0.4
2023-01-17T21:04:32.863Z,-0.4
2023-01-17T21:06:32.879Z,-0.4
2023-01-17T21:08:33.683Z,-0.4
2023-01-17T21:10:32.883Z,-0.3
2023-01-17T21:12:34.228Z,-0.4
2023-01-17T21:14:35.189Z,-0.4
2023-01-17T21:16:32.881Z,-0.4
2023-01-17T21:18:32.867Z,-0.5
2023-01-17T21:20:34.225Z,-0.5
2023-01-17T21:22:36.569Z,-0.7
2023-01-17T21:24:33.736Z,-0.7
2023-01-17T21:26:34.509Z,-0.7
2023-01-17T21:28:32.866Z,-0.7
2023-01-17T21:30:32.867Z,-0.6
2023-01-17T21:32:33.155Z,-0.6
2023-01-17T21:34:32.851Z,-0.7
2023-01-17T21:36:33.595Z,-0.7
2023-01-17T21:38:34.361Z,-0.8
2023-01-17T21:40:32.869Z,-0.7
2023-01-17T21:42:36.176Z,-0.7
2023-01-17T21:44:32.898Z,-0.7
2023-01-17T21:46:33.745Z,-0.7
2023-01-17T21:48:32.871Z,-0.8
2023-01-17T21:50:33.808Z,-0.8
2023-01-17T21:52:32.865Z,-1
2023-01-17T21:54:32.899Z,-1
2023-01-17T21:56:33.006Z,-1.1
2023-01-17T21:58:38.405Z,-1.1
2023-01-17T22:00:32.874Z,-1.2
2023-01-17T22:02:32.923Z,-1.2
2023-01-17T22:04:35.952Z,-1.3
2023-01-17T22:08:32.887Z,-1.3
2023-01-17T22:10:33.745Z,-1.4
2023-01-17T22:14:34.463Z,-1.4
2023-01-17T22:16:34.542Z,-1.3
2023-01-17T22:18:32.912Z,-1.2
2023-01-17T22:20:32.902Z,-1.3
2023-01-17T22:22:33.752Z,-1.3
2023-01-17T22:24:32.899Z,-1.3
2023-01-17T22:26:32.872Z,-1.4
2023-01-17T22:28:32.955Z,-1.4
2023-01-17T22:30:33.288Z,-1.4
2023-01-17T22:32:32.880Z,-1.3
2023-01-17T22:34:34.161Z,-1.3
2023-01-17T22:36:32.890Z,-1.3
2023-01-17T22:38:32.876Z,-1.4
2023-01-17T22:40:32.897Z,-1.4
2023-01-17T22:42:32.974Z,-1.5
2023-01-17T22:44:38.492Z,-1.6
2023-01-17T22:46:34.272Z,-1.6
2023-01-17T22:48:32.888Z,-1.6
2023-01-17T22:50:33.093Z,-1.4
2023-01-17T22:52:33.000Z,-1.7
2023-01-17T22:54:32.881Z,-1.9
2023-01-17T22:56:32.917Z,-2
2023-01-17T22:58:32.876Z,-2.1
2023-01-17T23:00:33.224Z,-2
2023-01-17T23:02:32.960Z,-2
2023-01-17T23:04:34.524Z,-1.9
2023-01-17T23:06:32.902Z,-2.1
2023-01-17T23:10:32.871Z,-2
2023-01-17T23:14:32.943Z,-2.2
2023-01-17T23:16:32.889Z,-2
2023-01-17T23:18:33.254Z,-1.9
2023-01-17T23:20:33.365Z,-1.5
2023-01-17T23:22:33.728Z,-1.7
2023-01-17T23:24:32.892Z,-1.6
2023-01-17T23:26:32.897Z,-1.6
2023-01-17T23:28:32.885Z,-1.5
2023-01-17T23:30:32.881Z,-1.6
2023-01-17T23:32:33.737Z,-1.7
2023-01-17T23:34:32.879Z,-2.1
2023-01-17T23:36:34.131Z,-2.2
2023-01-17T23:38:34.570Z,-2.4
2023-01-17T23:40:32.904Z,-2.4
2023-01-17T23:42:32.876Z,-2.3
2023-01-17T23:44:43.616Z,-2.3
2023-01-17T23:46:32.973Z,-2.2
2023-01-17T23:48:32.880Z,-2.2
2023-01-17T23:50:32.898Z,-2
2023-01-17T23:52:32.904Z,-2
2023-01-17T23:54:32.976Z,-1.9
2023-01-17T23:56:33.011Z,-1.9
2023-01-17T23:58:33.079Z,-1.9
